Time;durP1;ratioP1;P1;durP2;ratioP2;P2;SDS_P1;SDS_P2;PMS_P1;PMS_P2;Temp;Humidity;BMP_temperature;BMP_pressure;BME280_temperature;BME280_humidity;BME280_pressure;Samples;Min_cycle;Max_cycle;Signal;HPM_P1;HPM_P2
2022/09/02 00:00:53;;;;;;;1.50;1.40;;;;;;;14.61;53.24;101305.81;5070274;28;20506;-28
2022/09/02 00:03:19;;;;;;;1.90;1.80;;;;;;;14.60;53.20;101304.03;5070667;28;20028;-28
2022/09/02 00:05:45;;;;;;;1.77;1.67;;;;;;;14.62;53.25;101304.91;5072927;28;20357;-28
2022/09/02 00:08:10;;;;;;;1.80;1.70;;;;;;;14.55;53.47;101308.53;5072621;28;20024;-28
2022/09/02 00:10:39;;;;;;;1.63;1.50;;;;;;;14.54;53.59;101298.84;5067688;28;20036;-29
2022/09/02 00:13:05;;;;;;;2.03;1.70;;;;;;;14.50;53.50;101301.53;5069984;28;20021;-28
2022/09/02 00:15:32;;;;;;;1.77;1.65;;;;;;;14.48;53.56;101305.97;5071637;28;20017;-29
2022/09/02 00:17:58;;;;;;;1.80;1.70;;;;;;;14.44;53.62;101314.88;5070220;28;20104;-28
2022/09/02 00:20:24;;;;;;;1.63;1.52;;;;;;;14.43;53.58;101317.56;5071440;28;20059;-29
2022/09/02 00:22:49;;;;;;;1.48;1.48;;;;;;;14.36;53.66;101314.13;5072110;28;20031;-28
2022/09/02 00:25:15;;;;;;;2.30;1.70;;;;;;;14.35;53.71;101317.69;5069655;28;20031;-30
2022/09/02 00:27:40;;;;;;;1.70;1.60;;;;;;;14.32;53.88;101315.97;5067234;28;20033;-28
2022/09/02 00:30:06;;;;;;;2.00;1.70;;;;;;;14.29;53.94;101308.03;5064484;28;20039;-29
2022/09/02 00:32:31;;;;;;;1.88;1.77;;;;;;;14.28;53.86;101308.06;5068194;28;20052;-28
2022/09/02 00:34:57;;;;;;;1.85;1.75;;;;;;;14.23;54.09;101308.13;5071893;28;20069;-28
2022/09/02 00:37:24;;;;;;;1.70;1.60;;;;;;;14.23;54.01;101306.34;5070945;28;20031;-29
2022/09/02 00:39:51;;;;;;;1.88;1.70;;;;;;;14.18;54.13;101302.00;5069546;28;20202;-28
2022/09/02 00:42:17;;;;;;;2.22;1.85;;;;;;;14.13;54.00;101303.88;5070675;28;20032;-28
2022/09/02 00:44:42;;;;;;;2.00;1.60;;;;;;;14.09;54.34;101300.34;5060920;28;20312;-28
2022/09/02 00:47:07;;;;;;;1.98;1.80;;;;;;;14.08;54.26;101295.97;5068428;28;20048;-28
2022/09/02 00:49:35;;;;;;;1.67;1.58;;;;;;;14.04;54.25;101300.41;5069535;28;20032;-28
2022/09/02 00:52:12;;;;;;;3.45;2.03;;;;;;;14.06;54.13;101298.63;5068958;28;20112;-29
2022/09/02 00:54:46;;;;;;;1.55;1.45;;;;;;;13.98;54.52;101293.41;5067575;28;20032;-29
2022/09/02 00:57:18;;;;;;;1.98;1.80;;;;;;;13.98;54.24;101296.06;5063721;28;20017;-29
2022/09/02 01:00:08;;;;;;;1.98;1.80;;;;;;;13.94;54.28;101299.66;5052448;28;20055;-28
2022/09/02 01:02:36;;;;;;;1.77;1.60;;;;;;;13.93;54.25;101297.91;5071348;28;20513;-28
2022/09/02 01:05:03;;;;;;;2.15;1.80;;;;;;;13.92;54.31;101304.13;5068795;28;20051;-28
2022/09/02 01:07:33;;;;;;;1.88;1.77;;;;;;;13.88;54.37;101298.88;5068057;28;20028;-28
2022/09/02 01:10:00;;;;;;;1.90;1.80;;;;;;;13.86;54.28;101296.22;5070367;28;20555;-29
2022/09/02 01:12:28;;;;;;;1.75;1.65;;;;;;;13.78;54.32;101296.34;5070561;28;20035;-28
2022/09/02 01:14:54;;;;;;;1.70;1.60;;;;;;;13.78;54.15;101292.81;5071430;28;20064;-28
2022/09/02 01:17:19;;;;;;;1.92;1.83;;;;;;;13.72;54.35;101293.75;5069321;28;20055;-29
2022/09/02 01:19:49;;;;;;;1.75;1.65;;;;;;;13.72;54.41;101284.03;5067876;28;20032;-29
2022/09/02 01:22:19;;;;;;;2.28;1.60;;;;;;;13.67;54.59;101288.50;5085556;28;20025;-28
2022/09/02 01:24:44;;;;;;;2.42;1.90;;;;;;;13.68;54.47;101287.63;5058482;28;20536;-29
2022/09/02 01:27:17;;;;;;;2.92;1.85;;;;;;;13.64;54.74;101277.94;5071593;28;20028;-29
2022/09/02 01:29:43;;;;;;;2.28;1.92;;;;;;;13.61;54.65;101285.94;5063895;28;20036;-29
2022/09/02 01:32:08;;;;;;;1.95;1.85;;;;;;;13.60;54.94;101281.53;5069820;28;20480;-29
2022/09/02 01:34:33;;;;;;;2.35;2.08;;;;;;;13.60;54.76;101281.53;5068958;28;20086;-29
2022/09/02 01:36:59;;;;;;;2.22;2.03;;;;;;;13.54;54.91;101282.47;5069309;28;20020;-29
2022/09/02 01:39:24;;;;;;;1.70;1.60;;;;;;;13.53;54.91;101282.50;5065221;28;20036;-29
2022/09/02 01:41:51;;;;;;;3.15;1.88;;;;;;;13.49;55.04;101276.38;5068241;28;20067;-28
2022/09/02 01:44:16;;;;;;;1.75;1.65;;;;;;;13.47;54.95;101280.75;5066772;28;20032;-29
2022/09/02 01:46:42;;;;;;;1.95;1.85;;;;;;;13.42;54.99;101275.53;5046019;28;20704;-29
2022/09/02 01:49:07;;;;;;;2.38;2.08;;;;;;;13.40;54.86;101274.66;5069076;28;20028;-29
2022/09/02 01:51:33;;;;;;;1.90;1.65;;;;;;;13.40;55.14;101281.75;5063570;28;20400;-29
2022/09/02 01:53:58;;;;;;;1.85;1.75;;;;;;;13.38;55.33;101279.13;5068608;28;20028;-28
2022/09/02 01:56:23;;;;;;;2.00;1.90;;;;;;;13.33;54.84;101273.84;5069715;28;20502;-29
2022/09/02 01:58:49;;;;;;;2.22;2.03;;;;;;;13.33;55.43;101275.63;5065963;28;20032;-28
2022/09/02 02:01:14;;;;;;;1.67;1.58;;;;;;;13.33;55.08;101272.97;5069674;28;20032;-28
2022/09/02 02:03:40;;;;;;;2.03;1.70;;;;;;;13.28;55.27;101267.75;5069012;28;20361;-28
2022/09/02 02:06:10;;;;;;;2.10;2.00;;;;;;;13.27;55.36;101267.75;5069130;28;20036;-29
2022/09/02 02:08:37;;;;;;;2.17;2.00;;;;;;;13.21;55.29;101268.69;5070718;28;20388;-29
2022/09/02 02:11:02;;;;;;;2.47;1.95;;;;;;;13.22;55.41;101265.16;5073495;28;20078;-29
2022/09/02 02:13:28;;;;;;;2.10;1.95;;;;;;;13.22;55.53;101267.78;5072439;28;20454;-28
2022/09/02 02:15:53;;;;;;;2.60;2.25;;;;;;;13.16;55.62;101263.44;5073814;28;20119;-28
2022/09/02 02:18:18;;;;;;;1.73;1.63;;;;;;;13.15;55.78;101261.69;5072103;28;20103;-28
2022/09/02 02:20:44;;;;;;;2.20;2.00;;;;;;;13.13;55.41;101260.81;5074611;28;20139;-29
2022/09/02 02:23:09;;;;;;;2.03;1.92;;;;;;;13.11;55.68;101265.28;5073611;28;20397;-28
2022/09/02 02:25:35;;;;;;;1.90;1.80;;;;;;;13.09;55.61;101267.03;5074506;28;20083;-29
2022/09/02 02:28:00;;;;;;;2.00;1.85;;;;;;;13.04;55.83;101258.28;5087444;28;20059;-28
2022/09/02 02:30:25;;;;;;;2.05;1.85;;;;;;;13.02;55.94;101258.28;5076019;28;20527;-28
2022/09/02 02:32:51;;;;;;;2.13;1.85;;;;;;;12.98;56.11;101255.69;5074002;28;20024;-28
2022/09/02 02:35:17;;;;;;;2.03;1.92;;;;;;;12.95;55.92;101252.16;5074020;28;20036;-28
2022/09/02 02:37:44;;;;;;;2.10;2.00;;;;;;;12.98;55.92;101247.72;5071066;28;20024;-28
2022/09/02 02:40:10;;;;;;;3.30;2.13;;;;;;;12.91;55.88;101247.78;5073558;28;20028;-29
2022/09/02 02:42:36;;;;;;;1.83;1.73;;;;;;;12.94;55.74;101252.19;5069311;28;20472;-29
2022/09/02 02:45:02;;;;;;;6.55;2.17;;;;;;;12.88;55.76;101253.13;5068296;28;20028;-28
2022/09/02 02:47:27;;;;;;;2.35;2.15;;;;;;;12.88;56.17;101260.19;5074119;28;20020;-28
2022/09/02 02:49:53;;;;;;;2.30;2.13;;;;;;;12.86;55.92;101254.91;5073788;28;20083;-29
2022/09/02 02:52:18;;;;;;;2.35;2.03;;;;;;;12.82;55.80;101250.53;5072984;28;20025;-29
2022/09/02 02:54:44;;;;;;;2.00;1.85;;;;;;;12.82;55.96;101258.47;5067153;28;20491;-29
2022/09/02 02:57:10;;;;;;;2.38;2.22;;;;;;;12.76;56.09;101247.94;5073606;28;20023;-29
2022/09/02 02:59:35;;;;;;;1.98;1.83;;;;;;;12.78;55.96;101249.69;5072190;28;20460;-28
2022/09/02 03:02:01;;;;;;;1.77;1.67;;;;;;;12.75;56.14;101248.84;5073932;28;20032;-29
2022/09/02 03:04:26;;;;;;;1.75;1.65;;;;;;;12.72;56.15;101251.50;5071439;28;20016;-29
2022/09/02 03:06:52;;;;;;;2.30;2.10;;;;;;;12.64;56.61;101249.78;5071498;28;20025;-29
2022/09/02 03:09:19;;;;;;;2.28;2.03;;;;;;;12.66;56.55;101244.50;5071792;28;20454;-30
2022/09/02 03:11:45;;;;;;;2.13;2.03;;;;;;;12.64;56.15;101249.78;5074190;28;20024;-28
2022/09/02 03:14:10;;;;;;;2.40;2.20;;;;;;;12.62;56.60;101241.00;5073097;28;20424;-29
2022/09/02 03:16:35;;;;;;;2.08;1.98;;;;;;;12.61;56.26;101241.91;5072483;28;20024;-28
2022/09/02 03:19:01;;;;;;;2.10;1.98;;;;;;;12.60;56.73;101250.72;5073030;28;20063;-28
2022/09/02 03:21:26;;;;;;;3.70;2.10;;;;;;;12.54;56.27;101240.19;5072955;28;20086;-29
2022/09/02 03:23:52;;;;;;;2.10;2.00;;;;;;;12.53;56.57;101243.72;5072460;28;20112;-28
2022/09/02 03:26:20;;;;;;;2.00;1.90;;;;;;;12.48;56.43;101238.47;5070659;28;20036;-29
2022/09/02 03:28:47;;;;;;;1.67;1.58;;;;;;;12.43;56.56;101240.25;5072003;28;20092;-29
2022/09/02 03:31:18;;;;;;;1.73;1.63;;;;;;;12.42;56.48;101239.41;5071723;28;20114;-28
2022/09/02 03:33:43;;;;;;;2.33;2.13;;;;;;;12.40;56.49;101235.88;5066199;28;20035;-28
2022/09/02 03:36:24;;;;;;;2.53;2.00;;;;;;;12.39;56.51;101234.13;5070351;28;20044;-28
2022/09/02 03:38:50;;;;;;;2.47;2.28;;;;;;;12.36;56.37;101239.44;5062856;28;20110;-29
2022/09/02 03:41:15;;;;;;;2.83;2.00;;;;;;;12.31;56.44;101233.31;5060347;28;20116;-28
2022/09/02 03:43:41;;;;;;;2.15;1.80;;;;;;;12.29;56.30;101238.63;5059745;28;20433;-28
2022/09/02 03:46:08;;;;;;;2.70;1.90;;;;;;;12.29;56.47;101235.06;5071595;28;20074;-28
2022/09/02 03:48:34;;;;;;;6.30;2.22;;;;;;;12.28;56.00;101235.97;5071287;28;20035;-29
2022/09/02 03:51:00;;;;;;;2.13;1.92;;;;;;;12.22;56.58;101233.38;5072460;28;20032;-28
2022/09/02 03:53:25;;;;;;;2.15;1.73;;;;;;;12.23;56.37;101235.13;5065364;28;20033;-28
2022/09/02 03:55:51;;;;;;;2.05;1.83;;;;;;;12.21;56.23;101239.56;5071695;28;20029;-28
2022/09/02 03:58:16;;;;;;;2.17;2.08;;;;;;;12.14;56.86;101233.44;5071376;28;20318;-28
2022/09/02 04:00:43;;;;;;;1.98;1.85;;;;;;;12.15;56.54;101237.81;5070906;28;20559;-28
2022/09/02 04:03:08;;;;;;;2.00;1.90;;;;;;;12.11;56.85;101234.34;5061148;28;20361;-30
2022/09/02 04:05:34;;;;;;;3.15;2.58;;;;;;;12.07;56.99;101237.88;5070107;28;20028;-28
2022/09/02 04:07:59;;;;;;;1.65;1.55;;;;;;;12.06;56.59;101246.69;5065918;28;20048;-29
2022/09/02 04:10:25;;;;;;;2.20;2.08;;;;;;;12.05;56.42;101239.63;5065607;28;20057;-28
2022/09/02 04:12:51;;;;;;;2.00;1.90;;;;;;;12.01;56.83;101246.69;5065260;28;20510;-30
2022/09/02 04:15:18;;;;;;;1.92;1.83;;;;;;;12.00;56.49;101246.72;5067751;28;20147;-30
2022/09/02 04:17:43;;;;;;;2.63;2.20;;;;;;;11.92;56.47;101244.09;5072838;28;20025;-30
2022/09/02 04:20:11;;;;;;;2.17;2.05;;;;;;;11.87;56.56;101236.19;5071309;28;20028;-30
2022/09/02 04:22:37;;;;;;;2.03;1.83;;;;;;;11.88;56.72;101248.53;5069042;28;20035;-28
2022/09/02 04:25:04;;;;;;;2.70;2.30;;;;;;;11.84;56.73;101252.06;5052350;28;20021;-31
2022/09/02 04:27:30;;;;;;;2.42;2.25;;;;;;;11.81;56.58;101246.81;5071493;28;20519;-30
2022/09/02 04:29:55;;;;;;;2.38;2.13;;;;;;;11.76;56.39;101245.94;5051964;28;20033;-31
2022/09/02 04:32:21;;;;;;;4.05;1.80;;;;;;;11.73;56.41;101245.94;5070636;28;20032;-31
2022/09/02 04:34:46;;;;;;;2.00;1.90;;;;;;;11.72;56.30;101239.81;5066034;28;20091;-30
2022/09/02 04:37:12;;;;;;;2.10;1.90;;;;;;;11.67;56.48;101246.84;5070665;28;20029;-30
2022/09/02 04:39:38;;;;;;;3.17;2.05;;;;;;;11.65;56.63;101246.88;5069920;28;20155;-31
2022/09/02 04:42:03;;;;;;;2.72;2.38;;;;;;;11.62;56.89;101246.88;5067247;28;20500;-30
2022/09/02 04:44:29;;;;;;;2.28;2.10;;;;;;;11.58;56.96;101258.38;5068608;28;20077;-29
2022/09/02 04:46:54;;;;;;;3.10;2.00;;;;;;;11.56;56.77;101252.19;5069935;28;20025;-30
2022/09/02 04:49:20;;;;;;;3.22;2.22;;;;;;;11.54;56.83;101253.97;5069233;28;20028;-30
2022/09/02 04:51:46;;;;;;;2.35;2.15;;;;;;;11.55;56.91;101255.72;5083052;28;20032;-30
2022/09/02 04:54:12;;;;;;;5.13;2.30;;;;;;;11.54;56.98;101249.56;5052542;28;20047;-30
2022/09/02 04:56:37;;;;;;;1.85;1.75;;;;;;;11.51;56.82;101249.56;5069215;28;20036;-30
2022/09/02 04:59:03;;;;;;;2.00;1.90;;;;;;;11.52;56.67;101253.09;5065074;28;20060;-30
2022/09/02 05:01:32;;;;;;;5.25;2.15;;;;;;;11.47;57.26;101252.25;5066018;28;20073;-30
2022/09/02 05:04:00;;;;;;;3.10;2.40;;;;;;;11.47;56.91;101250.44;5065734;28;20085;-30
2022/09/02 05:06:27;;;;;;;2.58;2.38;;;;;;;11.46;56.99;101253.09;5072287;28;20419;-30
2022/09/02 05:08:53;;;;;;;2.50;2.30;;;;;;;11.41;57.00;101251.34;5068307;28;20179;-30
2022/09/02 05:11:22;;;;;;;2.38;1.85;;;;;;;11.39;57.00;101253.13;5071458;28;20107;-30
2022/09/02 05:13:50;;;;;;;2.40;2.20;;;;;;;11.40;56.98;101252.25;5065685;28;20048;-31
2022/09/02 05:16:21;;;;;;;2.38;2.05;;;;;;;11.37;57.24;101241.69;5072241;28;20035;-30
2022/09/02 05:18:50;;;;;;;2.25;2.05;;;;;;;11.37;56.71;101251.38;5065571;28;20144;-28
2022/09/02 05:21:16;;;;;;;2.72;2.53;;;;;;;11.37;56.73;101251.38;5033971;28;20392;-29
2022/09/02 05:23:42;;;;;;;2.50;2.28;;;;;;;11.35;56.97;101247.88;5071511;28;20029;-28
2022/09/02 05:26:09;;;;;;;4.20;2.40;;;;;;;11.33;57.14;101244.38;5072589;28;20479;-28
2022/09/02 05:28:35;;;;;;;2.58;2.13;;;;;;;11.36;57.13;101261.06;5068539;28;20020;-28
2022/09/02 05:31:12;;;;;;;2.45;2.25;;;;;;;11.38;57.18;101259.31;5073817;28;20025;-28
2022/09/02 05:33:39;;;;;;;1.90;1.80;;;;;;;11.38;57.47;101254.03;5074255;28;20039;-30
2022/09/02 05:36:16;;;;;;;3.80;2.40;;;;;;;11.39;57.35;101250.50;5074575;28;20035;-30
2022/09/02 05:38:43;;;;;;;2.92;2.55;;;;;;;11.42;57.52;101252.25;5071422;28;20074;-30
2022/09/02 05:41:10;;;;;;;2.40;2.15;;;;;;;11.44;57.56;101257.53;5073010;28;20070;-30
2022/09/02 05:43:37;;;;;;;4.20;2.45;;;;;;;11.47;57.45;101249.59;5088689;28;20115;-30
2022/09/02 05:46:07;;;;;;;2.40;2.20;;;;;;;11.45;57.66;101254.00;5075379;28;20024;-30
2022/09/02 05:51:18;;;;;;;2.10;2.00;;;;;;;11.49;58.03;101256.63;5072793;28;20071;-30
2022/09/02 05:53:43;;;;;;;2.22;2.03;;;;;;;11.57;57.35;101253.94;5075856;28;20032;-30
2022/09/02 05:56:09;;;;;;;2.33;2.17;;;;;;;11.54;57.61;101252.19;5075239;28;20084;-30
2022/09/02 05:58:34;;;;;;;2.30;2.10;;;;;;;11.56;57.87;101252.19;5053041;28;20034;-30
2022/09/02 06:00:59;;;;;;;2.38;2.17;;;;;;;11.52;57.98;101246.06;5069516;28;20024;-31
2022/09/02 06:03:25;;;;;;;2.15;2.05;;;;;;;11.52;57.81;101248.69;5067841;28;20036;-30
2022/09/02 06:05:57;;;;;;;2.30;2.10;;;;;;;11.56;57.65;101249.53;5073117;28;20028;-30
2022/09/02 06:08:23;;;;;;;2.47;2.28;;;;;;;11.61;57.71;101245.09;5068020;28;20567;-30
2022/09/02 06:10:49;;;;;;;2.50;2.30;;;;;;;11.62;57.71;101246.00;5071782;28;20493;-30
2022/09/02 06:13:14;;;;;;;3.00;2.70;;;;;;;11.64;58.37;101245.09;5072184;28;20488;-30
2022/09/02 06:15:43;;;;;;;2.50;2.30;;;;;;;11.70;58.18;101248.63;5054421;28;20029;-30
2022/09/02 06:18:09;;;;;;;2.70;2.50;;;;;;;11.73;57.72;101249.47;5056072;28;20060;-30
2022/09/02 06:20:34;;;;;;;2.83;2.50;;;;;;;11.79;57.52;101240.63;5073658;28;20034;-30
2022/09/02 06:22:59;;;;;;;2.00;1.90;;;;;;;11.89;57.63;101249.41;5074937;28;20434;-30
2022/09/02 06:25:25;;;;;;;2.75;2.55;;;;;;;11.98;57.80;101246.72;5075564;28;20025;-29
2022/09/02 06:27:50;;;;;;;2.53;2.33;;;;;;;12.03;57.63;101242.28;5074954;28;20028;-30
2022/09/02 06:30:15;;;;;;;3.63;2.58;;;;;;;12.12;58.21;101246.66;5075355;28;20033;-29
2022/09/02 06:32:41;;;;;;;2.50;2.30;;;;;;;12.24;57.60;101240.41;5075875;28;20024;-30
2022/09/02 06:35:08;;;;;;;2.70;2.47;;;;;;;12.27;58.71;101250.09;5073753;28;20115;-30
2022/09/02 06:37:33;;;;;;;2.70;2.50;;;;;;;12.31;58.05;101241.25;5074272;28;20027;-30
2022/09/02 06:39:58;;;;;;;2.80;2.30;;;;;;;12.47;61.29;101247.28;5059281;28;20025;-30
2022/09/02 06:42:25;;;;;;;2.63;2.42;;;;;;;12.58;60.16;101244.56;5072617;28;20036;-30
2022/09/02 06:44:50;;;;;;;3.33;3.03;;;;;;;12.68;57.75;101242.72;5068780;28;20549;-30
2022/09/02 06:47:15;;;;;;;3.10;2.80;;;;;;;12.79;58.12;101242.63;5066924;28;20056;-31
2022/09/02 06:49:41;;;;;;;2.90;2.60;;;;;;;12.86;57.52;101236.38;5073204;28;20039;-29
2022/09/02 06:52:07;;;;;;;3.88;3.20;;;;;;;12.98;59.10;101247.72;5072253;28;20518;-30
2022/09/02 06:54:32;;;;;;;3.60;3.10;;;;;;;13.09;60.43;101245.84;5068409;28;20024;-30
2022/09/02 06:56:58;;;;;;;3.22;2.78;;;;;;;13.14;58.05;101249.31;5073946;28;20483;-30
2022/09/02 06:59:23;;;;;;;2.92;2.63;;;;;;;13.23;59.51;101248.34;5056706;28;20031;-30
2022/09/02 07:01:49;;;;;;;2.88;2.60;;;;;;;13.31;58.54;101243.84;5072153;28;20024;-30
2022/09/02 07:06:59;;;;;;;3.50;3.20;;;;;;;13.47;57.94;101247.19;5073161;28;20086;-31
2022/09/02 07:09:35;;;;;;;3.25;2.95;;;;;;;13.54;58.11;101244.53;5064936;28;20028;-30
2022/09/02 07:12:01;;;;;;;3.85;3.50;;;;;;;13.65;58.84;101242.59;5071416;28;20048;-30
2022/09/02 07:14:27;;;;;;;3.08;2.88;;;;;;;13.70;58.00;101248.72;5071556;28;20031;-30
2022/09/02 07:16:55;;;;;;;3.45;3.15;;;;;;;13.81;58.72;101242.41;5072006;28;20024;-31
2022/09/02 07:19:20;;;;;;;3.53;3.22;;;;;;;13.91;58.80;101241.34;5071347;28;20031;-29
2022/09/02 07:21:48;;;;;;;5.80;2.95;;;;;;;13.97;57.67;101238.63;5065900;28;20419;-30
2022/09/02 07:24:13;;;;;;;6.72;3.20;;;;;;;14.05;58.07;101237.66;5074549;28;20036;-30
2022/09/02 07:26:39;;;;;;;3.25;3.05;;;;;;;14.14;57.78;101228.69;5076928;28;20032;-30
2022/09/02 07:29:07;;;;;;;3.38;2.85;;;;;;;14.23;57.46;101236.47;5071214;28;20032;-30
2022/09/02 07:31:37;;;;;;;4.55;3.10;;;;;;;14.34;57.95;101236.34;5072756;28;20059;-31
2022/09/02 07:34:04;;;;;;;3.60;3.00;;;;;;;14.48;58.11;101242.28;5070139;28;20028;-30
2022/09/02 07:36:30;;;;;;;4.53;2.92;;;;;;;14.57;57.89;101240.41;5057724;28;20021;-30
2022/09/02 07:38:55;;;;;;;5.50;3.20;;;;;;;14.70;57.97;101235.72;5052995;28;20445;-30
2022/09/02 07:41:21;;;;;;;3.38;3.05;;;;;;;14.86;57.76;101236.38;5055994;28;20111;-30
2022/09/02 07:43:47;;;;;;;4.93;3.25;;;;;;;14.97;57.65;101231.75;5069516;28;20038;-30
2022/09/02 07:46:13;;;;;;;3.33;3.03;;;;;;;15.07;57.54;101234.25;5047209;28;20075;-30
2022/09/02 07:48:38;;;;;;;3.10;2.75;;;;;;;15.19;57.78;101231.34;5067877;28;20078;-30
2022/09/02 07:51:06;;;;;;;3.10;2.80;;;;;;;15.37;57.99;101226.53;5060630;28;20381;-31
2022/09/02 07:53:31;;;;;;;3.92;3.05;;;;;;;15.50;57.26;101227.16;5071866;28;20112;-30
2022/09/02 07:55:58;;;;;;;2.85;2.55;;;;;;;15.66;57.22;101233.03;5058030;28;20543;-30
2022/09/02 07:58:24;;;;;;;3.83;2.97;;;;;;;15.82;57.24;101235.38;5068319;28;20392;-31
2022/09/02 08:00:51;;;;;;;3.00;2.80;;;;;;;15.93;57.19;101236.00;5070692;28;20027;-30
2022/09/02 08:03:17;;;;;;;2.95;2.65;;;;;;;16.02;57.14;101229.63;5063669;28;20028;-29
2022/09/02 08:05:45;;;;;;;5.32;2.75;;;;;;;16.18;56.82;101230.16;5065402;28;20073;-29
2022/09/02 08:08:12;;;;;;;2.83;2.63;;;;;;;16.29;57.02;101227.22;5071196;28;20036;-29
2022/09/02 08:10:38;;;;;;;4.03;2.97;;;;;;;16.44;56.77;101238.41;5073822;28;20085;-30
2022/09/02 08:13:05;;;;;;;4.75;2.58;;;;;;;16.59;56.84;101229.16;5066616;28;20422;-30
2022/09/02 08:15:32;;;;;;;5.03;2.53;;;;;;;16.75;56.75;101227.88;5071926;28;20555;-30
2022/09/02 08:17:58;;;;;;;5.57;3.10;;;;;;;16.84;56.51;101226.72;5068756;28;20067;-30
2022/09/02 08:20:24;;;;;;;5.63;2.70;;;;;;;16.94;56.54;101224.69;5072005;28;20119;-30
2022/09/02 08:22:49;;;;;;;3.72;3.15;;;;;;;17.15;56.31;101238.38;5050224;28;20120;-30
2022/09/02 08:25:17;;;;;;;4.05;2.53;;;;;;;17.25;56.33;101228.34;5045711;28;20032;-29
2022/09/02 08:27:43;;;;;;;2.88;2.65;;;;;;;17.46;55.81;101234.84;5071341;28;20024;-30
2022/09/02 08:30:09;;;;;;;3.80;3.00;;;;;;;17.64;55.71;101229.91;5068666;28;20476;-30
2022/09/02 08:32:36;;;;;;;2.40;2.20;;;;;;;17.76;55.37;101224.19;5070693;28;20024;-28
2022/09/02 08:35:03;;;;;;;2.63;2.42;;;;;;;17.93;55.05;101226.34;5052012;28;20073;-30
2022/09/02 08:37:30;;;;;;;4.05;1.98;;;;;;;18.11;54.76;101223.16;5071321;28;20172;-30
2022/09/02 08:39:56;;;;;;;3.63;2.67;;;;;;;18.17;54.86;101223.81;5071424;28;20053;-30
2022/09/02 08:42:21;;;;;;;6.28;2.60;;;;;;;18.33;54.46;101224.22;5045188;28;20025;-30
2022/09/02 08:44:48;;;;;;;2.42;2.22;;;;;;;18.55;54.25;101223.50;5071346;28;20039;-30
2022/09/02 08:47:22;;;;;;;4.22;2.47;;;;;;;18.68;53.94;101217.72;5072190;28;20565;-30
2022/09/02 08:49:49;;;;;;;3.33;2.08;;;;;;;18.84;53.68;101218.06;5064214;28;20040;-30
2022/09/02 08:52:21;;;;;;;6.00;2.42;;;;;;;19.00;53.43;101213.03;5065076;28;20024;-30
2022/09/02 08:54:54;;;;;;;8.02;2.33;;;;;;;19.14;53.32;101203.69;5069837;28;20032;-31
2022/09/02 08:57:19;;;;;;;3.90;2.38;;;;;;;19.26;53.00;101202.34;5065771;28;20029;-31
2022/09/02 08:59:47;;;;;;;2.35;1.80;;;;;;;19.46;52.84;101201.59;5070013;28;20026;-31
2022/09/02 09:02:15;;;;;;;4.15;1.95;;;;;;;19.65;52.44;101192.84;5084244;28;20480;-31
2022/09/02 09:04:52;;;;;;;2.95;1.75;;;;;;;19.79;51.46;101195.88;5069767;28;20127;-31
2022/09/02 09:07:47;;;;;;;4.10;2.15;;;;;;;19.95;50.95;101190.78;5065172;28;20024;-30
2022/09/02 09:10:20;;;;;;;1.95;1.75;;;;;;;20.12;51.15;101184.78;5064703;28;20027;-30
2022/09/02 09:13:21;;;;;;;3.20;1.35;;;;;;;20.19;50.72;101197.88;5061919;28;20376;-31
2022/09/02 09:16:27;;;;;;;1.50;1.40;;;;;;;20.40;50.13;101188.06;5064774;28;20076;-30
2022/09/02 09:19:02;;;;;;;1.65;1.45;;;;;;;20.51;48.81;101191.16;5058760;28;20245;-30
2022/09/02 09:21:30;;;;;;;3.83;1.77;;;;;;;20.69;49.44;101182.41;5069799;28;20496;-30
2022/09/02 09:23:56;;;;;;;4.60;1.80;;;;;;;20.89;49.25;101190.47;5071233;28;20025;-28
2022/09/02 09:26:27;;;;;;;1.30;1.20;;;;;;;20.96;48.97;101177.66;5070430;28;20029;-29
2022/09/02 09:28:54;;;;;;;1.88;1.70;;;;;;;21.14;48.54;101186.69;5071767;28;20380;-29
2022/09/02 09:31:21;;;;;;;2.25;1.30;;;;;;;21.27;48.88;101178.06;5070527;28;20127;-29
2022/09/02 09:34:04;;;;;;;2.92;1.27;;;;;;;21.31;47.31;101179.69;5070934;28;20055;-28
2022/09/02 09:36:56;;;;;;;1.88;1.45;;;;;;;21.50;47.65;101173.44;5068404;28;20103;-29
2022/09/02 09:39:26;;;;;;;2.22;1.20;;;;;;;21.55;48.02;101171.41;5065635;28;20040;-29
2022/09/02 09:41:54;;;;;;;1.38;1.10;;;;;;;21.44;46.94;101163.84;5067028;28;20043;-29
2022/09/02 09:44:47;;;;;;;3.70;1.13;;;;;;;21.70;45.68;101161.75;5071295;28;20032;-30
2022/09/02 09:47:21;;;;;;;3.03;1.23;;;;;;;21.87;46.13;101160.94;5070874;28;20384;-30
2022/09/02 09:49:52;;;;;;;1.30;1.20;;;;;;;22.02;45.57;101156.66;5067448;28;20055;-28
2022/09/02 09:52:22;;;;;;;1.13;1.02;;;;;;;22.08;45.98;101149.22;5059860;28;20059;-28
2022/09/02 09:55:06;;;;;;;5.60;1.42;;;;;;;22.24;44.79;101152.84;5068854;28;20039;-28
2022/09/02 09:57:31;;;;;;;1.20;1.10;;;;;;;22.32;45.06;101147.09;5070961;28;20029;-28
2022/09/02 10:00:00;;;;;;;1.42;1.10;;;;;;;22.46;45.11;101148.19;5068879;28;20392;-29
2022/09/02 10:02:26;;;;;;;2.58;1.08;;;;;;;22.63;45.60;101158.97;5069804;28;20020;-29
2022/09/02 10:04:54;;;;;;;1.55;1.45;;;;;;;22.68;44.97;101151.53;5052871;28;20123;-29
2022/09/02 10:07:42;;;;;;;1.25;1.15;;;;;;;22.84;43.98;101152.56;5069534;28;20383;-29
2022/09/02 10:10:19;;;;;;;0.93;0.90;;;;;;;23.02;44.67;101145.31;5061306;28;20036;-29
2022/09/02 10:12:47;;;;;;;1.75;0.98;;;;;;;23.10;43.86;101140.38;5052106;28;20025;-29
2022/09/02 10:15:12;;;;;;;1.73;1.13;;;;;;;23.17;44.55;101149.84;5066099;28;20024;-29
2022/09/02 10:17:49;;;;;;;1.65;1.00;;;;;;;23.24;43.97;101144.97;5067868;28;20444;-29
2022/09/02 10:21:10;;;;;;;1.10;0.90;;;;;;;23.30;42.65;101150.03;5061774;28;20052;-29
2022/09/02 10:23:42;;;;;;;2.25;1.25;;;;;;;23.39;42.63;101142.41;5043899;28;20087;-29
2022/09/02 10:26:24;;;;;;;2.58;1.10;;;;;;;23.36;42.01;101134.53;5070637;28;20036;-29
2022/09/02 10:29:23;;;;;;;2.53;1.13;;;;;;;23.47;42.76;101133.94;5070455;28;20024;-29
2022/09/02 10:32:10;;;;;;;0.95;0.90;;;;;;;23.56;42.16;101134.28;5074338;28;20029;-29
2022/09/02 10:34:55;;;;;;;1.20;0.90;;;;;;;23.67;41.57;101140.84;5073260;28;20032;-29
2022/09/02 10:37:23;;;;;;;6.93;1.05;;;;;;;23.76;41.66;101124.19;5068048;28;20066;-29
2022/09/02 10:40:03;;;;;;;1.77;1.20;;;;;;;23.83;40.83;101127.38;5068359;28;20025;-29
2022/09/02 10:42:55;;;;;;;1.00;0.90;;;;;;;23.83;41.32;101124.69;5071971;28;20043;-28
2022/09/02 10:45:23;;;;;;;2.88;1.38;;;;;;;23.91;40.80;101124.25;5068123;28;20442;-28
2022/09/02 10:48:12;;;;;;;1.10;1.00;;;;;;;23.79;40.09;101118.63;5073108;28;20059;-28
2022/09/02 10:51:00;;;;;;;2.72;0.90;;;;;;;23.86;41.06;101123.63;5060749;28;20075;-29
2022/09/02 10:53:42;;;;;;;2.13;1.10;;;;;;;23.84;40.54;101131.78;5056122;28;20123;-29
2022/09/02 10:56:26;;;;;;;2.92;1.15;;;;;;;23.81;40.45;101124.78;5069599;28;20033;-29
2022/09/02 10:59:04;;;;;;;3.47;1.00;;;;;;;23.82;40.52;101129.22;5068376;28;20024;-29
2022/09/02 11:01:54;;;;;;;1.10;1.00;;;;;;;23.75;40.04;101118.88;5071892;28;20492;-28
2022/09/02 11:04:22;;;;;;;2.17;0.98;;;;;;;23.89;40.00;101121.63;5059533;28;20048;-28
2022/09/02 11:06:48;;;;;;;0.95;0.95;;;;;;;24.00;40.66;101125.53;5070235;28;20036;-28
2022/09/02 11:09:26;;;;;;;1.25;1.10;;;;;;;23.97;40.39;101121.16;5069998;28;20082;-28
2022/09/02 11:11:56;;;;;;;0.70;0.70;;;;;;;24.00;39.79;101115.63;5070093;28;20029;-28
2022/09/02 11:14:47;;;;;;;1.77;1.05;;;;;;;23.97;39.79;101110.41;5067969;28;20025;-29
2022/09/02 11:17:26;;;;;;;1.23;1.00;;;;;;;24.07;39.49;101097.25;5070270;28;20511;-28
2022/09/02 11:19:57;;;;;;;1.40;1.08;;;;;;;24.21;39.31;101091.09;5069065;28;20032;-29
2022/09/02 11:22:43;;;;;;;3.13;1.00;;;;;;;24.28;39.49;101102.34;5068309;28;20017;-29
2022/09/02 11:25:17;;;;;;;1.05;1.00;;;;;;;24.33;39.62;101105.63;5074990;28;20462;-28
2022/09/02 11:27:51;;;;;;;1.15;0.88;;;;;;;24.34;38.82;101092.06;5059428;28;20051;-28
2022/09/02 11:30:22;;;;;;;1.17;0.88;;;;;;;24.36;39.35;101091.97;5071613;28;20078;-28
2022/09/02 11:33:18;;;;;;;0.85;0.85;;;;;;;24.33;39.08;101090.34;5071131;28;20028;-28
2022/09/02 11:35:43;;;;;;;1.27;0.60;;;;;;;24.38;38.72;101095.44;5069683;28;20031;-29
2022/09/02 11:38:22;;;;;;;1.52;0.80;;;;;;;24.47;38.99;101092.19;5070337;28;20020;-29